Time;durP1;ratioP1;P1;durP2;ratioP2;P2;SDS_P1;SDS_P2;PMS_P1;PMS_P2;Temp;Humidity;BMP_temperature;BMP_pressure;BME280_temperature;BME280_humidity;BME280_pressure;Samples;Min_cycle;Max_cycle;Signal;HPM_P1;HPM_P2
2023/12/20 00:00:40;;;;;;;14.30;6.40;;;;;;;1.10;77.59;92724.31;2054909;69;20149;-81
2023/12/20 00:03:06;;;;;;;12.13;5.65;;;;;;;1.15;77.97;92715.84;2054471;69;20237;-85
2023/12/20 00:05:33;;;;;;;14.50;6.88;;;;;;;0.65;79.76;92725.59;2054968;69;20239;-83
2023/12/20 00:07:59;;;;;;;14.73;6.97;;;;;;;0.88;78.73;92734.03;2054788;69;20569;-83
2023/12/20 00:10:24;;;;;;;12.15;6.30;;;;;;;0.97;77.99;92728.72;2054127;70;20204;-83
2023/12/20 00:12:50;;;;;;;14.88;7.25;;;;;;;0.94;77.78;92715.94;2054657;69;20166;-81
2023/12/20 00:15:16;;;;;;;10.50;5.55;;;;;;;1.04;77.92;92720.97;2054747;69;20552;-83
2023/12/20 00:17:41;;;;;;;13.20;6.38;;;;;;;0.98;77.14;92719.09;2055036;69;20233;-84
2023/12/20 00:20:07;;;;;;;10.25;5.50;;;;;;;0.93;77.16;92713.72;2055082;69;20590;-82
2023/12/20 00:22:33;;;;;;;10.77;6.13;;;;;;;0.52;77.93;92717.41;2055340;69;20154;-82
2023/12/20 00:25:00;;;;;;;15.02;6.78;;;;;;;0.81;77.69;92716.06;2054990;69;20137;-83
2023/12/20 00:27:26;;;;;;;19.80;7.65;;;;;;;0.86;77.55;92700.56;2054757;69;20181;-81
2023/12/20 00:29:51;;;;;;;16.67;7.32;;;;;;;0.79;77.84;92704.78;2054758;69;20212;-85
2023/12/20 00:32:17;;;;;;;12.38;6.25;;;;;;;0.82;77.66;92711.25;2055014;69;20209;-85
2023/12/20 00:34:43;;;;;;;14.15;6.93;;;;;;;0.79;77.56;92704.06;2055153;69;20157;-84
2023/12/20 00:37:10;;;;;;;12.55;5.70;;;;;;;0.88;77.59;92707.03;2054965;69;20169;-84
2023/12/20 00:39:35;;;;;;;14.18;5.95;;;;;;;0.74;77.66;92705.69;2054270;69;20181;-83
2023/12/20 00:42:01;;;;;;;13.52;6.10;;;;;;;0.75;77.23;92699.59;2054995;69;20204;-83
2023/12/20 00:44:27;;;;;;;11.30;5.88;;;;;;;0.83;77.34;92699.63;2054170;70;20661;-82
2023/12/20 00:46:52;;;;;;;11.05;5.55;;;;;;;0.88;76.86;92695.22;2054354;70;20610;-80
2023/12/20 00:49:18;;;;;;;8.95;5.30;;;;;;;0.86;77.27;92700.56;2054814;70;20244;-83
2023/12/20 00:51:43;;;;;;;14.45;6.82;;;;;;;0.84;77.32;92706.66;2054282;69;20142;-84
2023/12/20 00:54:11;;;;;;;15.57;6.63;;;;;;;0.83;77.39;92707.22;2053995;70;20575;-82
2023/12/20 00:56:36;;;;;;;9.77;5.35;;;;;;;0.78;77.49;92706.09;2054353;69;20138;-83
2023/12/20 00:59:02;;;;;;;13.02;6.53;;;;;;;0.69;78.14;92712.88;2054466;70;20161;-84
2023/12/20 01:01:28;;;;;;;11.52;5.60;;;;;;;0.79;77.97;92704.06;2055158;70;20208;-84
2023/12/20 01:03:53;;;;;;;13.15;5.13;;;;;;;0.75;77.66;92688.50;2054895;70;20204;-82
2023/12/20 01:06:20;;;;;;;7.05;4.15;;;;;;;0.82;78.08;92678.72;2051646;69;20208;-82
2023/12/20 01:08:46;;;;;;;6.70;3.80;;;;;;;0.88;77.35;92671.00;2053898;70;20605;-84
2023/12/20 01:11:12;;;;;;;8.60;3.90;;;;;;;0.88;77.51;92670.28;2054632;69;20160;-86
2023/12/20 01:13:37;;;;;;;6.30;3.00;;;;;;;0.78;77.41;92672.81;2054132;70;20528;-83
2023/12/20 01:16:03;;;;;;;4.50;2.42;;;;;;;0.71;78.91;92671.50;2051143;69;20221;-84
2023/12/20 01:18:29;;;;;;;4.93;3.08;;;;;;;0.94;78.15;92676.38;2054067;70;20233;-82
2023/12/20 01:20:56;;;;;;;5.90;3.20;;;;;;;0.91;78.04;92671.94;2054797;69;20191;-83
2023/12/20 01:23:22;;;;;;;4.97;2.75;;;;;;;0.90;78.23;92662.13;2054398;69;20173;-82
2023/12/20 01:25:48;;;;;;;8.23;3.30;;;;;;;0.82;78.57;92664.13;2053627;69;20516;-82
2023/12/20 01:28:14;;;;;;;4.07;2.50;;;;;;;1.05;77.92;92656.63;2053804;70;20149;-82
2023/12/20 01:30:39;;;;;;;3.22;1.85;;;;;;;1.44;75.60;92635.28;2054102;70;20130;-82
2023/12/20 01:33:05;;;;;;;7.00;3.58;;;;;;;1.05;76.07;92633.72;2054787;70;20276;-83
2023/12/20 01:35:31;;;;;;;6.22;3.35;;;;;;;1.10;76.82;92636.34;2054074;69;20146;-84
2023/12/20 01:37:56;;;;;;;6.57;3.38;;;;;;;1.18;76.02;92616.94;2051220;70;20240;-83
2023/12/20 01:40:23;;;;;;;4.72;2.65;;;;;;;1.24;76.27;92615.47;2053335;70;20126;-83
2023/12/20 01:42:59;;;;;;;4.10;2.30;;;;;;;1.35;76.20;92611.59;2054617;69;20149;-84
2023/12/20 01:45:24;;;;;;;4.25;1.90;;;;;;;1.37;77.02;92619.34;2054389;69;20180;-82
2023/12/20 01:47:50;;;;;;;4.70;2.35;;;;;;;1.32;76.24;92620.28;2054035;70;20251;-83
2023/12/20 01:50:16;;;;;;;3.45;2.40;;;;;;;1.27;75.87;92613.63;2054532;69;20173;-82
2023/12/20 01:52:43;;;;;;;4.55;2.63;;;;;;;1.09;76.35;92601.56;2054407;69;20158;-83
2023/12/20 01:55:15;;;;;;;2.25;1.50;;;;;;;1.58;73.92;92592.19;2054279;70;20165;-82
2023/12/20 01:57:42;;;;;;;3.33;1.70;;;;;;;1.82;72.52;92585.31;2054374;69;20150;-83
2023/12/20 02:00:11;;;;;;;2.72;1.70;;;;;;;1.88;72.33;92571.25;2054639;69;20154;-86
2023/12/20 02:02:39;;;;;;;2.63;1.50;;;;;;;2.03;71.58;92558.09;2053965;69;20141;-84
2023/12/20 02:05:08;;;;;;;2.75;1.48;;;;;;;2.08;71.66;92544.56;2054468;69;20142;-84
2023/12/20 02:07:37;;;;;;;2.60;1.70;;;;;;;2.09;70.93;92541.22;2054770;69;20158;-86
2023/12/20 02:10:04;;;;;;;2.25;1.60;;;;;;;2.13;73.41;92530.47;2054384;69;20624;-83
2023/12/20 02:12:30;;;;;;;2.50;1.17;;;;;;;2.11;73.23;92537.88;2051179;70;20176;-82
2023/12/20 02:14:56;;;;;;;2.95;1.63;;;;;;;2.04;72.40;92533.81;2054527;70;20249;-82
2023/12/20 02:17:22;;;;;;;2.40;1.50;;;;;;;2.10;72.82;92528.06;2054763;69;20154;-83
2023/12/20 02:19:50;;;;;;;2.53;1.50;;;;;;;1.74;73.14;92531.84;2054730;69;20146;-84
2023/12/20 02:22:15;;;;;;;3.60;1.75;;;;;;;1.67;73.95;92536.13;2053928;70;20191;-83
2023/12/20 02:24:41;;;;;;;3.28;1.90;;;;;;;2.04;72.77;92551.22;2054424;70;20158;-83
2023/12/20 02:27:08;;;;;;;3.70;2.05;;;;;;;1.59;74.08;92549.25;2053809;69;20162;-83
2023/12/20 02:29:34;;;;;;;3.65;2.35;;;;;;;1.75;74.53;92516.69;2054025;70;20256;-83
2023/12/20 02:32:02;;;;;;;4.28;2.30;;;;;;;1.84;74.26;92526.50;2054676;69;20747;-83
2023/12/20 02:34:28;;;;;;;4.22;2.40;;;;;;;1.94;73.81;92530.16;2054289;69;20150;-81
2023/12/20 02:36:54;;;;;;;3.80;2.13;;;;;;;1.82;73.76;92529.81;2054711;70;20235;-84
2023/12/20 02:39:22;;;;;;;3.65;2.25;;;;;;;1.56;75.36;92539.28;2054223;69;20172;-84
2023/12/20 02:41:48;;;;;;;3.47;2.28;;;;;;;1.95;74.23;92537.19;2055106;69;20367;-83
2023/12/20 02:44:14;;;;;;;5.10;2.42;;;;;;;2.15;73.48;92538.22;2054932;69;20162;-83
2023/12/20 02:46:39;;;;;;;2.78;1.92;;;;;;;2.15;73.34;92541.00;2054478;70;20557;-84
2023/12/20 02:49:06;;;;;;;4.38;2.45;;;;;;;1.80;74.79;92531.66;2055174;69;20169;-83
2023/12/20 02:51:31;;;;;;;4.28;2.65;;;;;;;2.08;74.18;92517.53;2055022;69;20166;-83
2023/12/20 02:53:57;;;;;;;6.07;2.35;;;;;;;2.16;74.16;92515.47;2054726;69;20237;-83
2023/12/20 02:56:23;;;;;;;3.80;2.35;;;;;;;2.29;73.54;92506.91;2054140;69;20138;-83
2023/12/20 02:58:48;;;;;;;4.47;2.40;;;;;;;1.97;74.03;92506.81;2054849;69;20126;-84
2023/12/20 03:01:14;;;;;;;3.47;2.40;;;;;;;1.99;74.12;92485.53;2054734;69;20234;-85
2023/12/20 03:03:41;;;;;;;5.05;2.20;;;;;;;2.14;73.67;92478.44;2054277;70;20170;-83
2023/12/20 03:06:06;;;;;;;4.13;2.40;;;;;;;2.25;73.65;92480.81;2055327;69;20181;-83
2023/12/20 03:08:32;;;;;;;3.33;2.20;;;;;;;2.36;73.25;92488.72;2054136;69;20659;-82
2023/12/20 03:11:01;;;;;;;5.82;2.28;;;;;;;2.38;73.58;92477.75;2054292;70;20224;-81
2023/12/20 03:13:26;;;;;;;4.13;2.53;;;;;;;1.91;73.71;92492.41;2051769;70;20176;-83
2023/12/20 03:15:52;;;;;;;6.65;2.63;;;;;;;1.69;75.45;92518.91;2054387;70;20150;-82
2023/12/20 03:18:18;;;;;;;4.75;2.40;;;;;;;2.07;74.96;92513.28;2055220;69;20162;-85
2023/12/20 03:20:43;;;;;;;4.07;2.17;;;;;;;1.87;74.71;92509.44;2054522;70;20248;-83
2023/12/20 03:23:10;;;;;;;5.07;2.50;;;;;;;1.83;74.99;92502.78;2054791;70;20627;-83
2023/12/20 03:25:36;;;;;;;3.97;2.80;;;;;;;2.08;74.47;92495.31;2054061;69;20177;-85
2023/12/20 03:28:01;;;;;;;4.72;2.60;;;;;;;2.25;73.94;92497.47;2054346;69;20679;-86
2023/12/20 03:30:27;;;;;;;4.72;2.40;;;;;;;2.39;73.63;92501.50;2054798;69;20161;-83
2023/12/20 03:32:53;;;;;;;4.43;2.50;;;;;;;2.23;73.74;92505.63;2054467;69;20145;-81
2023/12/20 03:35:19;;;;;;;4.32;2.20;;;;;;;2.13;74.13;92490.84;2057257;69;20146;-82
2023/12/20 03:37:45;;;;;;;3.58;2.10;;;;;;;2.12;73.68;92503.25;2054434;70;20146;-82
2023/12/20 03:40:11;;;;;;;4.40;2.53;;;;;;;2.24;74.48;92502.28;2054126;70;20212;-82
2023/12/20 03:42:36;;;;;;;4.35;2.60;;;;;;;2.15;74.49;92502.13;2054265;70;20137;-84
2023/12/20 03:45:03;;;;;;;4.47;2.58;;;;;;;1.78;75.50;92496.88;2055079;69;20154;-84
2023/12/20 03:47:29;;;;;;;4.47;2.53;;;;;;;1.91;75.62;92484.81;2055029;69;20146;-84
2023/12/20 03:50:05;;;;;;;3.50;2.60;;;;;;;2.20;74.93;92465.84;2051818;70;20165;-85
2023/12/20 03:52:46;;;;;;;4.63;2.67;;;;;;;2.16;74.54;92464.75;2054762;69;20169;-84
2023/12/20 03:55:13;;;;;;;5.68;3.08;;;;;;;2.18;74.86;92440.66;2054790;69;20139;-86
2023/12/20 03:57:42;;;;;;;4.78;2.83;;;;;;;2.25;73.13;92441.94;2054000;70;20162;-86
2023/12/20 04:00:15;;;;;;;5.55;3.30;;;;;;;2.56;72.45;92436.91;2055180;69;20138;-87
2023/12/20 04:02:42;;;;;;;4.63;2.35;;;;;;;2.58;73.08;92430.81;2054735;70;20187;-86
2023/12/20 04:05:11;;;;;;;4.38;2.70;;;;;;;1.94;75.16;92444.81;2055022;69;20256;-85
2023/12/20 04:07:36;;;;;;;5.57;3.08;;;;;;;2.09;75.31;92457.16;2054119;69;20245;-83
2023/12/20 04:10:05;;;;;;;4.47;3.17;;;;;;;2.09;74.82;92443.28;2054763;69;20237;-83
2023/12/20 04:12:32;;;;;;;5.95;3.70;;;;;;;2.22;74.50;92440.25;2054328;70;20189;-85
2023/12/20 04:14:57;;;;;;;5.22;3.20;;;;;;;2.03;75.54;92441.47;2054858;69;20150;-84
2023/12/20 04:17:23;;;;;;;8.88;3.50;;;;;;;2.27;75.10;92440.03;2054805;69;20637;-85
2023/12/20 04:19:49;;;;;;;6.10;3.53;;;;;;;2.32;74.70;92438.34;2054215;70;20245;-82
2023/12/20 04:22:15;;;;;;;6.05;3.38;;;;;;;2.32;74.84;92443.19;2054743;69;20583;-83
2023/12/20 04:24:42;;;;;;;7.60;3.30;;;;;;;2.22;74.29;92449.34;2053989;70;20581;-84
2023/12/20 04:27:09;;;;;;;6.35;3.63;;;;;;;2.26;73.91;92446.91;2053967;70;20146;-84
2023/12/20 04:29:35;;;;;;;8.27;4.45;;;;;;;1.72;76.80;92449.16;2054653;69;20549;-85
2023/12/20 04:32:03;;;;;;;6.97;4.55;;;;;;;2.14;75.33;92450.66;2054791;69;20602;-85
2023/12/20 04:34:29;;;;;;;7.05;4.40;;;;;;;2.16;75.59;92461.97;2054795;69;20610;-85
2023/12/20 04:36:55;;;;;;;9.30;4.10;;;;;;;2.34;74.83;92465.56;2054910;69;20233;-86
2023/12/20 04:39:21;;;;;;;6.85;4.25;;;;;;;2.42;74.77;92471.81;2054246;70;20618;-85
2023/12/20 04:41:47;;;;;;;7.00;4.22;;;;;;;2.43;74.50;92473.28;2054774;69;20172;-84
2023/12/20 04:44:13;;;;;;;7.03;4.50;;;;;;;2.22;74.77;92485.44;2054567;69;20126;-85
2023/12/20 04:46:39;;;;;;;9.30;4.40;;;;;;;2.39;74.56;92489.63;2054625;70;20234;-86
2023/12/20 04:49:04;;;;;;;6.05;3.85;;;;;;;2.27;75.01;92500.41;2054976;69;20150;-86
2023/12/20 04:51:34;;;;;;;9.05;5.18;;;;;;;2.13;75.86;92499.91;2054747;69;20166;-86
2023/12/20 04:53:59;;;;;;;7.40;4.70;;;;;;;2.24;75.60;92504.31;2054078;69;20200;-83
2023/12/20 04:56:25;;;;;;;8.30;5.18;;;;;;;2.17;75.57;92511.38;2054517;69;20601;-85
2023/12/20 04:58:51;;;;;;;8.18;5.20;;;;;;;1.96;76.05;92519.22;2056752;69;20216;-85
2023/12/20 05:01:17;;;;;;;8.27;5.10;;;;;;;2.19;75.51;92533.78;2055005;69;20697;-84
2023/12/20 05:03:42;;;;;;;9.00;5.20;;;;;;;2.31;75.09;92528.56;2055333;69;20146;-85
2023/12/20 05:06:09;;;;;;;9.80;6.25;;;;;;;2.22;75.30;92529.16;2054228;69;20684;-83
2023/12/20 05:08:35;;;;;;;11.48;6.30;;;;;;;2.18;75.60;92535.06;2054257;70;20510;-81
2023/12/20 05:11:00;;;;;;;8.40;5.45;;;;;;;2.33;75.25;92527.97;2055106;69;20157;-81
2023/12/20 05:13:26;;;;;;;9.63;5.80;;;;;;;1.94;76.19;92538.47;2054626;69;20253;-80
2023/12/20 05:15:53;;;;;;;10.80;6.35;;;;;;;2.14;76.31;92537.50;2054666;69;20700;-83
2023/12/20 05:18:20;;;;;;;12.38;6.43;;;;;;;2.32;75.84;92551.50;2054887;70;20667;-81
2023/12/20 05:20:46;;;;;;;15.98;6.90;;;;;;;2.24;75.74;92555.03;2055047;69;20316;-83
2023/12/20 05:23:13;;;;;;;12.73;6.80;;;;;;;2.35;75.40;92567.81;2054147;70;20166;-83
2023/12/20 05:25:39;;;;;;;11.88;6.53;;;;;;;2.46;75.21;92572.94;2053694;70;20593;-83
2023/12/20 05:28:04;;;;;;;10.98;6.20;;;;;;;2.54;74.62;92579.22;2054768;69;20156;-83
2023/12/20 05:30:30;;;;;;;10.52;6.25;;;;;;;2.43;75.40;92578.88;2054737;69;20196;-84
2023/12/20 05:32:56;;;;;;;12.10;6.78;;;;;;;2.47;75.26;92593.88;2055184;69;20178;-83
2023/12/20 05:35:23;;;;;;;13.60;7.13;;;;;;;2.46;74.75;92595.16;2054074;70;20327;-83
2023/12/20 05:37:49;;;;;;;11.68;6.80;;;;;;;2.53;75.02;92599.97;2054697;69;20158;-82
2023/12/20 05:40:15;;;;;;;13.13;7.10;;;;;;;2.43;75.25;92603.88;2054759;69;20157;-84
2023/12/20 05:42:40;;;;;;;15.25;7.30;;;;;;;2.36;75.28;92599.84;2054563;69;20138;-85
2023/12/20 05:45:06;;;;;;;13.30;6.97;;;;;;;2.39;75.78;92618.19;2054916;69;20166;-86
2023/12/20 05:47:32;;;;;;;14.43;6.68;;;;;;;2.47;75.87;92612.56;2055178;69;20166;-84
2023/12/20 05:49:58;;;;;;;11.98;6.70;;;;;;;2.53;75.71;92596.47;2054844;69;20467;-83
2023/12/20 05:52:24;;;;;;;11.65;6.80;;;;;;;2.37;75.83;92565.19;2054733;69;20160;-85
2023/12/20 05:54:49;;;;;;;12.30;7.53;;;;;;;2.33;76.21;92555.75;2054417;69;20142;-84
2023/12/20 05:57:16;;;;;;;11.30;6.68;;;;;;;2.44;76.25;92561.66;2054687;69;20174;-83
2023/12/20 05:59:41;;;;;;;10.70;6.18;;;;;;;2.55;75.69;92546.59;2054412;70;20514;-85
2023/12/20 06:02:07;;;;;;;8.15;4.50;;;;;;;2.45;75.78;92577.03;2054818;70;20153;-86
2023/12/20 06:04:33;;;;;;;11.57;6.38;;;;;;;2.28;77.15;92605.41;2055250;69;20150;-83
2023/12/20 06:07:00;;;;;;;11.52;6.97;;;;;;;2.37;76.45;92609.66;2055349;69;20161;-86
2023/12/20 06:09:28;;;;;;;13.93;7.05;;;;;;;2.46;76.19;92613.88;2054825;69;20168;-82
2023/12/20 06:11:54;;;;;;;11.65;7.00;;;;;;;2.66;75.54;92617.72;2055232;69;20208;-86
2023/12/20 06:14:20;;;;;;;12.80;7.47;;;;;;;2.62;75.45;92609.75;2055421;69;20149;-82
2023/12/20 06:16:46;;;;;;;10.75;6.38;;;;;;;2.69;75.46;92597.13;2054989;70;20575;-83
2023/12/20 06:19:12;;;;;;;13.43;5.80;;;;;;;2.79;75.09;92596.00;2055386;69;20245;-84
2023/12/20 06:21:38;;;;;;;12.48;6.40;;;;;;;2.51;76.06;92587.94;2054860;70;20237;-87
2023/12/20 06:24:04;;;;;;;11.43;6.72;;;;;;;2.67;75.70;92583.81;2054692;70;20134;-79
2023/12/20 06:26:29;;;;;;;13.90;7.10;;;;;;;2.31;76.03;92594.50;2055191;69;20548;-84
2023/12/20 06:28:55;;;;;;;12.73;7.07;;;;;;;2.62;75.64;92590.31;2055225;70;20620;-85
2023/12/20 06:31:21;;;;;;;13.02;7.03;;;;;;;2.71;75.16;92600.84;2055511;69;20150;-84
2023/12/20 06:33:47;;;;;;;14.88;7.80;;;;;;;2.77;75.08;92604.13;2055357;70;20693;-83
2023/12/20 06:36:13;;;;;;;12.52;7.22;;;;;;;2.87;74.69;92604.28;2054914;70;20142;-90
2023/12/20 06:38:42;;;;;;;12.55;6.85;;;;;;;2.90;74.79;92582.97;2055738;69;20652;-83
2023/12/20 06:41:07;;;;;;;8.82;4.95;;;;;;;2.87;74.75;92587.59;2056374;69;20157;-86
2023/12/20 06:43:33;;;;;;;8.20;4.10;;;;;;;2.88;74.43;92582.75;2054849;70;20146;-82
2023/12/20 06:46:00;;;;;;;96.22;33.50;;;;;;;2.84;74.51;92579.63;2057603;69;20154;-87
2023/12/20 06:48:26;;;;;;;65.25;24.70;;;;;;;2.71;75.39;92586.94;2055375;70;20592;-87
2023/12/20 06:50:54;;;;;;;39.20;16.05;;;;;;;2.88;74.92;92613.34;2057526;69;20150;-88
2023/12/20 06:53:19;;;;;;;24.58;12.77;;;;;;;2.49;75.42;92610.00;2052348;70;20488;-87
2023/12/20 06:55:45;;;;;;;21.35;10.38;;;;;;;2.47;76.34;92632.03;2055804;69;20597;-83
2023/12/20 06:58:10;;;;;;;15.90;9.30;;;;;;;2.10;77.41;92636.38;2056805;69;20150;-84
2023/12/20 07:00:36;;;;;;;18.50;9.57;;;;;;;2.15;77.34;92649.31;2057036;69;20536;-82
2023/12/20 07:03:03;;;;;;;19.48;9.88;;;;;;;2.23;77.58;92650.06;2057240;69;20490;-82
2023/12/20 07:05:29;;;;;;;19.15;10.45;;;;;;;2.04;78.34;92651.19;2055252;69;20122;-82
2023/12/20 07:07:54;;;;;;;18.25;10.55;;;;;;;1.89;78.66;92659.53;2055233;70;20212;-83
2023/12/20 07:10:20;;;;;;;20.42;11.30;;;;;;;2.33;77.00;92658.56;2054490;69;20142;-82
2023/12/20 07:12:45;;;;;;;19.95;10.95;;;;;;;2.35;76.16;92653.94;2054734;70;20215;-83
2023/12/20 07:15:11;;;;;;;21.40;10.65;;;;;;;1.97;77.86;92657.50;2057515;69;20157;-80
2023/12/20 07:17:37;;;;;;;22.20;11.90;;;;;;;1.80;78.67;92657.31;2056028;69;20177;-83
2023/12/20 07:20:03;;;;;;;29.77;14.50;;;;;;;1.80;78.43;92665.66;2055128;69;20502;-84
2023/12/20 07:22:32;;;;;;;24.92;12.57;;;;;;;2.23;77.16;92677.84;2055450;69;20150;-82
2023/12/20 07:25:01;;;;;;;22.13;11.60;;;;;;;2.41;76.27;92690.59;2054686;70;20161;-82
2023/12/20 07:27:26;;;;;;;26.48;12.65;;;;;;;2.46;75.97;92692.44;2054575;70;20170;-81
2023/12/20 07:29:52;;;;;;;31.65;13.43;;;;;;;2.18;76.62;92698.94;2054847;69;20228;-84
2023/12/20 07:32:18;;;;;;;31.17;15.30;;;;;;;2.04;77.60;92706.00;2055268;70;20142;-83
2023/12/20 07:34:45;;;;;;;29.83;14.13;;;;;;;2.25;76.77;92706.53;2055267;69;20201;-85
2023/12/20 07:37:11;;;;;;;25.73;13.48;;;;;;;2.16;76.56;92706.38;2055175;69;20156;-82
2023/12/20 07:39:41;;;;;;;30.20;15.70;;;;;;;1.67;78.47;92721.31;2057173;69;20181;-82
2023/12/20 07:42:07;;;;;;;33.92;18.52;;;;;;;1.68;78.84;92717.25;2055221;69;20169;-84
2023/12/20 07:44:33;;;;;;;32.15;16.40;;;;;;;2.20;77.13;92723.38;2054559;70;20182;-83
2023/12/20 07:46:59;;;;;;;29.20;16.10;;;;;;;2.42;76.39;92738.56;2054653;69;20162;-82
2023/12/20 07:49:24;;;;;;;24.95;13.48;;;;;;;1.95;77.42;92729.50;2055040;70;20597;-82
2023/12/20 07:51:50;;;;;;;26.98;13.60;;;;;;;1.78;78.13;92727.25;2054484;70;20142;-82
2023/12/20 07:54:16;;;;;;;26.25;14.32;;;;;;;1.88;79.13;92704.50;2054705;69;20608;-82
2023/12/20 07:56:43;;;;;;;26.50;14.13;;;;;;;2.21;77.30;92692.28;2055304;69;20150;-83
2023/12/20 07:59:09;;;;;;;26.00;14.13;;;;;;;2.14;77.29;92672.84;2057455;69;20177;-82
2023/12/20 08:01:34;;;;;;;48.50;20.00;;;;;;;2.07;77.50;92660.44;2054787;69;20609;-81
2023/12/20 08:04:00;;;;;;;39.28;17.52;;;;;;;2.34;76.91;92669.13;2054095;70;20217;-82
2023/12/20 08:06:29;;;;;;;41.53;17.63;;;;;;;2.20;77.33;92674.16;2051677;70;20245;-81
2023/12/20 08:08:55;;;;;;;33.30;15.80;;;;;;;2.22;77.36;92690.97;2054858;70;20146;-82
2023/12/20 08:11:21;;;;;;;27.35;14.38;;;;;;;2.28;76.59;92696.34;2055118;69;20142;-81
2023/12/20 08:13:47;;;;;;;32.13;14.70;;;;;;;2.29;77.21;92718.03;2053799;69;20189;-81
2023/12/20 08:16:13;;;;;;;27.02;14.00;;;;;;;2.15;77.17;92716.72;2053509;69;20165;-80
2023/12/20 08:18:39;;;;;;;23.80;13.02;;;;;;;2.41;76.20;92723.19;2053555;69;20196;-80
2023/12/20 08:21:08;;;;;;;24.35;13.05;;;;;;;2.59;76.01;92726.88;2054520;69;20233;-81
2023/12/20 08:23:34;;;;;;;25.02;13.88;;;;;;;2.71;75.64;92736.31;2054164;69;20182;-83
2023/12/20 08:26:07;;;;;;;31.88;15.88;;;;;;;2.78;75.63;92727.94;2056367;69;20506;-81
2023/12/20 08:28:36;;;;;;;27.42;15.43;;;;;;;2.65;75.97;92714.25;2054046;70;20197;-81
2023/12/20 08:31:03;;;;;;;27.85;15.18;;;;;;;2.80;75.38;92710.72;2055006;70;20153;-80
2023/12/20 08:33:30;;;;;;;25.15;14.18;;;;;;;2.51;76.16;92708.16;2055450;70;20214;-80
2023/12/20 08:35:56;;;;;;;31.77;16.92;;;;;;;2.53;76.70;92702.81;2060548;69;20246;-79
2023/12/20 08:38:22;;;;;;;34.97;18.08;;;;;;;2.23;77.79;92700.78;2055681;69;20229;-80
2023/12/20 08:40:48;;;;;;;31.73;16.42;;;;;;;2.75;76.60;92704.06;2055016;69;20170;-81
2023/12/20 08:43:14;;;;;;;29.02;15.80;;;;;;;2.66;76.04;92693.50;2054607;70;20216;-80
2023/12/20 08:45:40;;;;;;;40.08;20.38;;;;;;;2.70;76.43;92712.56;2055029;70;20149;-79
2023/12/20 08:48:06;;;;;;;37.20;19.45;;;;;;;2.73;76.50;92720.53;2054546;70;20232;-80
2023/12/20 08:50:31;;;;;;;38.53;19.17;;;;;;;3.05;75.81;92717.09;2054885;70;20616;-82
2023/12/20 08:52:57;;;;;;;29.23;15.20;;;;;;;2.74;75.50;92724.78;2054871;69;20142;-83
2023/12/20 08:55:23;;;;;;;29.27;14.38;;;;;;;2.53;76.99;92740.97;2054712;70;20161;-83
2023/12/20 08:57:50;;;;;;;24.02;13.35;;;;;;;2.89;75.77;92737.19;2054977;69;20142;-83
2023/12/20 09:00:17;;;;;;;24.92;13.95;;;;;;;2.69;76.34;92744.44;2054830;69;20193;-83
2023/12/20 09:02:43;;;;;;;23.98;13.43;;;;;;;2.89;76.02;92734.41;2051498;70;20193;-80
2023/12/20 09:05:09;;;;;;;25.23;13.05;;;;;;;3.16;75.02;92734.69;2057531;69;20126;-85
2023/12/20 09:07:36;;;;;;;22.75;13.20;;;;;;;3.34;74.61;92732.75;2054808;69;20138;-83
2023/12/20 09:10:02;;;;;;;23.67;12.93;;;;;;;3.54;74.38;92734.53;2054825;69;20169;-84
2023/12/20 09:12:28;;;;;;;26.65;14.38;;;;;;;3.20;74.84;92740.59;2056790;70;20240;-82
2023/12/20 09:14:54;;;;;;;30.48;16.25;;;;;;;3.42;74.46;92741.81;2054894;70;20582;-84
2023/12/20 09:17:20;;;;;;;35.83;18.88;;;;;;;3.16;75.38;92754.16;2051600;70;20221;-82
2023/12/20 09:19:46;;;;;;;34.67;18.60;;;;;;;3.51;74.58;92752.34;2054332;70;20146;-83
2023/12/20 09:22:12;;;;;;;38.53;20.85;;;;;;;3.56;74.41;92751.41;2055308;69;20209;-82
2023/12/20 09:24:41;;;;;;;37.03;19.65;;;;;;;3.34;74.26;92749.44;2053989;70;20598;-83
2023/12/20 09:27:07;;;;;;;36.97;19.80;;;;;;;3.50;74.41;92750.88;2055156;70;20146;-81
2023/12/20 09:29:32;;;;;;;36.50;19.27;;;;;;;3.67;73.89;92748.19;2054774;69;20165;-83
2023/12/20 09:31:58;;;;;;;38.58;19.67;;;;;;;3.77;73.32;92746.28;2054646;70;20134;-81
2023/12/20 09:34:25;;;;;;;34.38;19.80;;;;;;;3.86;73.62;92746.97;2054775;70;20231;-83
2023/12/20 09:36:52;;;;;;;32.20;17.88;;;;;;;3.82;73.52;92748.09;2054496;69;20514;-83
2023/12/20 09:39:23;;;;;;;31.77;16.77;;;;;;;3.88;73.39;92752.72;2054411;70;20196;-82
2023/12/20 09:42:00;;;;;;;26.58;14.93;;;;;;;3.83;73.01;92749.56;2054668;69;20142;-83
2023/12/20 09:44:26;;;;;;;47.03;23.27;;;;;;;3.35;74.60;92742.59;2054717;69;20613;-83
2023/12/20 09:46:54;;;;;;;43.00;20.63;;;;;;;3.36;75.01;92747.59;2053973;70;20189;-80
2023/12/20 09:49:21;;;;;;;37.72;19.73;;;;;;;3.58;74.41;92734.16;2054675;70;20150;-80
2023/12/20 09:51:47;;;;;;;39.42;19.75;;;;;;;3.75;73.92;92739.78;2055615;70;20177;-83
2023/12/20 09:54:16;;;;;;;37.08;19.48;;;;;;;3.86;73.61;92736.56;2055057;69;20153;-81
2023/12/20 09:56:47;;;;;;;33.72;18.20;;;;;;;3.49;73.48;92724.34;2057440;69;20149;-84
2023/12/20 09:59:13;;;;;;;33.03;19.17;;;;;;;3.37;75.02;92734.41;2055936;70;20230;-86
2023/12/20 10:01:44;;;;;;;32.97;17.52;;;;;;;3.60;74.32;92732.25;2057385;70;20558;-86
2023/12/20 10:04:20;;;;;;;33.22;17.23;;;;;;;3.86;73.89;92735.84;2056417;70;20637;-85
2023/12/20 10:06:46;;;;;;;33.40;17.55;;;;;;;3.85;73.82;92725.97;2055488;69;20158;-84
2023/12/20 10:09:12;;;;;;;63.85;26.50;;;;;;;3.42;74.17;92736.25;2056037;70;20157;-82
2023/12/20 10:11:38;;;;;;;52.25;24.15;;;;;;;3.74;73.86;92722.34;2059342;69;20138;-85
2023/12/20 10:14:06;;;;;;;41.67;23.42;;;;;;;3.76;73.67;92730.88;2053106;70;20129;-86
2023/12/20 10:16:33;;;;;;;43.00;21.05;;;;;;;4.06;73.20;92729.19;2055995;69;20160;-84
2023/12/20 10:19:00;;;;;;;51.75;22.30;;;;;;;4.20;72.95;92724.06;2057430;69;20225;-84
2023/12/20 10:21:26;;;;;;;35.55;17.10;;;;;;;4.21;72.11;92711.63;2054877;70;20215;-82
2023/12/20 10:23:54;;;;;;;40.33;17.42;;;;;;;4.30;72.31;92708.94;2057457;69;20146;-83
2023/12/20 10:26:22;;;;;;;39.03;20.77;;;;;;;4.20;71.79;92699.72;2056459;70;20130;-84
2023/12/20 10:28:53;;;;;;;34.33;17.55;;;;;;;4.29;71.64;92704.69;2057205;69;20245;-83
2023/12/20 10:31:31;;;;;;;31.60;16.93;;;;;;;4.24;71.88;92696.56;2056861;69;20616;-81
2023/12/20 10:33:58;;;;;;;36.13;17.40;;;;;;;4.31;71.78;92702.06;2058098;69;20161;-85
2023/12/20 10:36:29;;;;;;;32.40;17.95;;;;;;;4.31;71.79;92696.50;2055546;69;20157;-85
2023/12/20 10:38:57;;;;;;;32.90;17.40;;;;;;;4.37;71.43;92687.91;2055011;70;20173;-86
2023/12/20 10:41:31;;;;;;;36.60;19.33;;;;;;;3.80;72.46;92675.53;2055331;70;20312;-87
2023/12/20 10:44:02;;;;;;;34.42;18.20;;;;;;;3.75;72.46;92673.69;2054908;70;20213;-89
2023/12/20 10:46:29;;;;;;;47.20;25.67;;;;;;;4.01;72.26;92666.81;2054751;70;20138;-85
2023/12/20 10:48:57;;;;;;;46.47;25.25;;;;;;;4.18;71.46;92666.13;2057107;69;20541;-89
2023/12/20 10:51:24;;;;;;;46.42;25.55;;;;;;;3.54;73.24;92659.38;2054976;69;20146;-83
2023/12/20 10:53:51;;;;;;;45.60;24.48;;;;;;;3.91;72.67;92659.69;2054815;70;20558;-84
2023/12/20 10:56:18;;;;;;;41.03;22.92;;;;;;;4.21;72.08;92656.63;2054963;69;20605;-85
2023/12/20 10:58:47;;;;;;;38.30;21.17;;;;;;;4.41;71.69;92654.78;2051710;70;20233;-84
2023/12/20 11:01:18;;;;;;;40.72;21.55;;;;;;;4.68;71.13;92660.47;2055011;70;20303;-84
2023/12/20 11:03:48;;;;;;;36.63;21.02;;;;;;;5.05;70.37;92655.03;2055076;69;20387;-85
2023/12/20 11:06:39;;;;;;;34.53;19.83;;;;;;;5.14;70.21;92653.63;2057239;69;20605;-87
2023/12/20 11:09:19;;;;;;;37.88;19.75;;;;;;;4.66;69.50;92660.28;2054985;69;20150;-85
2023/12/20 11:12:13;;;;;;;47.70;24.63;;;;;;;4.63;70.70;92655.88;2055015;69;20145;-86
2023/12/20 11:14:50;;;;;;;51.30;28.17;;;;;;;5.48;69.17;92652.81;2055219;69;20138;-85
2023/12/20 11:17:16;;;;;;;42.53;25.52;;;;;;;5.41;67.63;92648.09;2054994;69;20150;-81
2023/12/20 11:19:57;;;;;;;44.55;24.83;;;;;;;6.01;67.71;92648.53;2054914;69;20130;-86
2023/12/20 11:22:30;;;;;;;41.60;23.38;;;;;;;6.15;67.21;92644.03;2054292;70;20138;-86
2023/12/20 11:25:08;;;;;;;39.25;22.83;;;;;;;6.43;66.55;92642.63;2054903;70;20620;-84
2023/12/20 11:27:36;;;;;;;38.38;21.73;;;;;;;6.49;66.27;92633.94;2054952;69;20220;-84
2023/12/20 11:30:07;;;;;;;39.30;22.35;;;;;;;6.53;66.21;92623.78;2054955;69;20256;-85
2023/12/20 11:32:37;;;;;;;38.03;21.08;;;;;;;6.60;65.20;92631.31;2054828;70;20146;-86